IE-0045 weather

Maganey Airstrip
County Kildare, Ireland

Public forecast

Using degrees Celsius for public forecast. Weather courtesy of forecast.io.

Closest aviation weather report (METAR) to Maganey Airstrip

Closest report is Casement Air Base, 29.7 nm (55.0 km) NE. Retrieved 2020/07/03 16:00 UTC (38 minutes ago):

EIME 031600Z 22016KT 9999 SCT019 BKN025 18/15 Q1005

Closest aviation forecast (TAF) to Maganey Airstrip

Closest forecast is Dublin Airport, 39.4 nm (72.9 km) NE. Retrieved 2020/07/03 12:09 UTC (4 hours ago):

TAF EIDW 031100Z 0312/0412 24014KT 9999 FEW013 BKN020 TEMPO 0312/0318 23016G27KT TEMPO 0312/0315 5000 -RA BKN013 PROB30 TEMPO 0317/0319 4000 -RADZ BKN007 TEMPO 0319/0409 4000 -RADZ BKN007 BECMG 0320/0322 25009KT PROB30 TEMPO 0320/0405 2000 BR BKN003 BECMG 0407/0409 22009KT TEMPO 0409/0412 5000 -RADZ BKN010